Canden, North Carolina
Current Conditions -  °F | °C
As of 8:56 AM on Friday 24 Oct 2014 (Local Time) from KHFF Reporting Station
Clear Clear  
Wind Chill: 50°   Ceiling: Unl
Heat Index: 50°   Visibility: 10mi
Dew Point: 45°   Wind: 2mph
Humidity: 84%   Direction: 320°NW
Pressure: 30.08"   Gusts: NA
Location:  35.2241°N, 79.7861°W
Report Text: KHFF 241256Z AUTO 32002KT 10SM CLR 10/07 A3008 RMK AO2 SLP189 T00990073
Loading
Personal Weather Stations






























Interactive Weather Map
Tropical Storm Tracking
New forecast layout! Learn more

10-Day Weather Forecast

Advertisements
Track Severe Weather on mobile